sensor_id;sensor_type;location;lat;lon;timestamp;P1;durP1;ratioP1;P2;durP2;ratioP2
12290;SDS011;6208;48.956;9.076;2023-04-21T14:37:34;37.90;;;10.85;;
12290;SDS011;6208;48.956;9.076;2023-04-21T14:40:18;9.13;;;6.40;;
12290;SDS011;6208;48.956;9.076;2023-04-21T14:43:02;5.72;;;4.63;;
12290;SDS011;6208;48.956;9.076;2023-04-21T14:45:46;5.25;;;4.85;;
12290;SDS011;6208;48.956;9.076;2023-04-21T14:48:31;5.57;;;5.10;;
12290;SDS011;6208;48.956;9.076;2023-04-21T14:51:16;9.07;;;5.20;;
12290;SDS011;6208;48.956;9.076;2023-04-21T14:54:01;4.82;;;4.35;;
12290;SDS011;6208;48.956;9.076;2023-04-21T14:56:45;4.80;;;4.40;;
12290;SDS011;6208;48.956;9.076;2023-04-21T14:59:29;4.72;;;4.35;;
12290;SDS011;6208;48.956;9.076;2023-04-21T15:02:13;4.80;;;4.30;;
12290;SDS011;6208;48.956;9.076;2023-04-21T15:04:57;4.97;;;4.57;;
12290;SDS011;6208;48.956;9.076;2023-04-21T15:07:42;7.22;;;4.50;;
12290;SDS011;6208;48.956;9.076;2023-04-21T15:10:26;4.90;;;4.60;;
12290;SDS011;6208;48.956;9.076;2023-04-21T15:13:12;3.67;;;3.47;;
12290;SDS011;6208;48.956;9.076;2023-04-21T15:15:56;4.70;;;4.40;;
12290;SDS011;6208;48.956;9.076;2023-04-21T15:18:41;4.35;;;4.05;;
12290;SDS011;6208;48.956;9.076;2023-04-21T15:21:25;4.70;;;4.38;;
12290;SDS011;6208;48.956;9.076;2023-04-21T15:24:09;4.22;;;3.92;;
12290;SDS011;6208;48.956;9.076;2023-04-21T15:26:54;4.68;;;4.18;;
12290;SDS011;6208;48.956;9.076;2023-04-21T15:29:38;4.32;;;3.92;;
12290;SDS011;6208;48.956;9.076;2023-04-21T15:32:23;3.40;;;3.20;;
12290;SDS011;6208;48.956;9.076;2023-04-21T15:35:07;4.00;;;3.80;;
12290;SDS011;6208;48.956;9.076;2023-04-21T15:37:52;3.45;;;3.25;;
12290;SDS011;6208;48.956;9.076;2023-04-21T15:40:36;4.28;;;3.78;;
12290;SDS011;6208;48.956;9.076;2023-04-21T15:43:20;3.40;;;3.20;;
12290;SDS011;6208;48.956;9.076;2023-04-21T15:46:04;5.38;;;4.97;;
12290;SDS011;6208;48.956;9.076;2023-04-21T15:48:55;3.83;;;3.60;;
12290;SDS011;6208;48.956;9.076;2023-04-21T15:51:39;3.40;;;3.20;;
12290;SDS011;6208;48.956;9.076;2023-04-21T15:54:26;3.45;;;3.20;;
12290;SDS011;6208;48.956;9.076;2023-04-21T15:57:10;3.65;;;3.35;;
12290;SDS011;6208;48.956;9.076;2023-04-21T15:59:54;3.72;;;3.53;;
12290;SDS011;6208;48.956;9.076;2023-04-21T16:02:38;4.40;;;4.15;;
12290;SDS011;6208;48.956;9.076;2023-04-21T16:05:23;3.75;;;3.55;;
12290;SDS011;6208;48.956;9.076;2023-04-21T16:08:07;3.88;;;3.67;;
12290;SDS011;6208;48.956;9.076;2023-04-21T16:10:51;3.50;;;3.30;;
12290;SDS011;6208;48.956;9.076;2023-04-21T16:13:35;4.78;;;3.70;;
12290;SDS011;6208;48.956;9.076;2023-04-21T16:16:19;4.13;;;3.83;;
12290;SDS011;6208;48.956;9.076;2023-04-21T16:19:03;4.63;;;4.20;;
12290;SDS011;6208;48.956;9.076;2023-04-21T16:21:48;13.32;;;9.48;;
12290;SDS011;6208;48.956;9.076;2023-04-21T16:24:33;7.72;;;4.60;;
12290;SDS011;6208;48.956;9.076;2023-04-21T16:27:17;5.43;;;4.55;;
12290;SDS011;6208;48.956;9.076;2023-04-21T16:30:01;8.18;;;5.72;;
12290;SDS011;6208;48.956;9.076;2023-04-21T16:32:47;4.63;;;4.30;;
12290;SDS011;6208;48.956;9.076;2023-04-21T16:35:31;5.13;;;3.65;;
12290;SDS011;6208;48.956;9.076;2023-04-21T16:38:15;3.00;;;2.80;;
12290;SDS011;6208;48.956;9.076;2023-04-21T16:40:59;3.45;;;3.22;;
12290;SDS011;6208;48.956;9.076;2023-04-21T16:43:43;2.95;;;2.80;;
12290;SDS011;6208;48.956;9.076;2023-04-21T16:46:27;2.90;;;2.72;;
12290;SDS011;6208;48.956;9.076;2023-04-21T16:49:11;4.50;;;2.95;;
12290;SDS011;6208;48.956;9.076;2023-04-21T16:51:56;3.17;;;3.00;;
12290;SDS011;6208;48.956;9.076;2023-04-21T16:54:40;3.38;;;3.17;;
12290;SDS011;6208;48.956;9.076;2023-04-21T16:57:25;3.08;;;2.88;;
12290;SDS011;6208;48.956;9.076;2023-04-21T17:00:11;3.47;;;3.28;;
12290;SDS011;6208;48.956;9.076;2023-04-21T17:02:56;3.65;;;3.45;;
12290;SDS011;6208;48.956;9.076;2023-04-21T17:05:40;3.50;;;3.28;;
12290;SDS011;6208;48.956;9.076;2023-04-21T17:08:24;4.25;;;3.25;;
12290;SDS011;6208;48.956;9.076;2023-04-21T17:11:09;3.40;;;3.20;;
12290;SDS011;6208;48.956;9.076;2023-04-21T17:13:53;13.98;;;6.60;;
12290;SDS011;6208;48.956;9.076;2023-04-21T17:16:37;3.97;;;3.55;;
12290;SDS011;6208;48.956;9.076;2023-04-21T17:19:22;3.50;;;3.30;;
12290;SDS011;6208;48.956;9.076;2023-04-21T17:22:07;3.58;;;3.38;;
12290;SDS011;6208;48.956;9.076;2023-04-21T17:24:51;5.05;;;4.65;;
12290;SDS011;6208;48.956;9.076;2023-04-21T17:27:36;3.80;;;3.60;;
12290;SDS011;6208;48.956;9.076;2023-04-21T17:30:21;3.80;;;3.60;;
12290;SDS011;6208;48.956;9.076;2023-04-21T17:33:06;3.70;;;3.40;;
12290;SDS011;6208;48.956;9.076;2023-04-21T17:35:50;3.88;;;3.58;;
12290;SDS011;6208;48.956;9.076;2023-04-21T17:38:35;3.60;;;3.40;;
12290;SDS011;6208;48.956;9.076;2023-04-21T17:41:19;3.63;;;3.35;;
12290;SDS011;6208;48.956;9.076;2023-04-21T17:44:03;4.07;;;3.78;;
12290;SDS011;6208;48.956;9.076;2023-04-21T17:46:48;7.63;;;4.15;;
12290;SDS011;6208;48.956;9.076;2023-04-21T17:49:33;9.98;;;5.45;;
12290;SDS011;6208;48.956;9.076;2023-04-21T17:52:18;3.55;;;3.35;;
12290;SDS011;6208;48.956;9.076;2023-04-21T17:55:02;3.00;;;2.80;;
12290;SDS011;6208;48.956;9.076;2023-04-21T17:57:47;3.58;;;3.03;;
12290;SDS011;6208;48.956;9.076;2023-04-21T18:00:31;3.33;;;3.03;;
12290;SDS011;6208;48.956;9.076;2023-04-21T18:03:17;4.15;;;3.85;;
12290;SDS011;6208;48.956;9.076;2023-04-21T18:06:01;4.30;;;4.00;;
12290;SDS011;6208;48.956;9.076;2023-04-21T18:08:47;4.72;;;3.65;;
12290;SDS011;6208;48.956;9.076;2023-04-21T18:11:31;5.38;;;3.72;;
12290;SDS011;6208;48.956;9.076;2023-04-21T18:14:15;5.90;;;4.25;;
12290;SDS011;6208;48.956;9.076;2023-04-21T18:17:00;4.43;;;4.00;;
12290;SDS011;6208;48.956;9.076;2023-04-21T18:19:44;4.05;;;3.70;;
12290;SDS011;6208;48.956;9.076;2023-04-21T18:22:29;4.22;;;3.88;;
12290;SDS011;6208;48.956;9.076;2023-04-21T18:25:14;3.28;;;3.08;;
12290;SDS011;6208;48.956;9.076;2023-04-21T18:28:01;4.00;;;3.53;;
12290;SDS011;6208;48.956;9.076;2023-04-21T18:30:45;5.55;;;5.00;;
12290;SDS011;6208;48.956;9.076;2023-04-21T18:33:32;6.03;;;4.63;;
12290;SDS011;6208;48.956;9.076;2023-04-21T18:36:16;5.57;;;4.78;;
12290;SDS011;6208;48.956;9.076;2023-04-21T18:39:00;5.65;;;5.15;;
12290;SDS011;6208;48.956;9.076;2023-04-21T18:41:45;4.63;;;4.22;;
12290;SDS011;6208;48.956;9.076;2023-04-21T18:44:31;6.68;;;6.05;;
12290;SDS011;6208;48.956;9.076;2023-04-21T18:47:15;5.57;;;4.63;;
12290;SDS011;6208;48.956;9.076;2023-04-21T18:50:00;6.05;;;5.47;;
12290;SDS011;6208;48.956;9.076;2023-04-21T18:52:45;5.80;;;5.00;;
12290;SDS011;6208;48.956;9.076;2023-04-21T18:55:29;5.68;;;5.28;;
12290;SDS011;6208;48.956;9.076;2023-04-21T18:58:16;6.07;;;5.47;;
12290;SDS011;6208;48.956;9.076;2023-04-21T19:01:00;5.93;;;5.35;;
12290;SDS011;6208;48.956;9.076;2023-04-21T19:03:44;6.72;;;6.07;;
12290;SDS011;6208;48.956;9.076;2023-04-21T19:06:30;8.63;;;6.82;;
12290;SDS011;6208;48.956;9.076;2023-04-21T19:09:15;7.38;;;6.68;;
12290;SDS011;6208;48.956;9.076;2023-04-21T19:11:59;8.23;;;6.88;;
12290;SDS011;6208;48.956;9.076;2023-04-21T19:14:44;6.53;;;6.03;;
12290;SDS011;6208;48.956;9.076;2023-04-21T19:17:29;6.70;;;6.13;;
12290;SDS011;6208;48.956;9.076;2023-04-21T19:20:13;6.35;;;5.85;;
12290;SDS011;6208;48.956;9.076;2023-04-21T19:22:57;6.50;;;6.00;;
12290;SDS011;6208;48.956;9.076;2023-04-21T19:25:41;6.00;;;5.53;;
12290;SDS011;6208;48.956;9.076;2023-04-21T19:28:26;5.95;;;5.45;;
12290;SDS011;6208;48.956;9.076;2023-04-21T19:31:10;6.55;;;5.97;;
12290;SDS011;6208;48.956;9.076;2023-04-21T19:33:54;6.10;;;5.47;;
12290;SDS011;6208;48.956;9.076;2023-04-21T19:36:38;6.75;;;5.10;;
12290;SDS011;6208;48.956;9.076;2023-04-21T19:39:24;5.55;;;5.03;;
12290;SDS011;6208;48.956;9.076;2023-04-21T19:42:08;9.18;;;6.18;;
12290;SDS011;6208;48.956;9.076;2023-04-21T19:44:53;5.45;;;4.95;;
12290;SDS011;6208;48.956;9.076;2023-04-21T19:47:37;4.82;;;4.43;;
12290;SDS011;6208;48.956;9.076;2023-04-21T19:50:22;4.82;;;4.43;;
12290;SDS011;6208;48.956;9.076;2023-04-21T19:53:06;4.72;;;4.15;;
12290;SDS011;6208;48.956;9.076;2023-04-21T19:55:50;5.45;;;4.95;;
12290;SDS011;6208;48.956;9.076;2023-04-21T19:58:35;5.65;;;4.90;;
12290;SDS011;6208;48.956;9.076;2023-04-21T20:01:19;6.30;;;4.95;;
12290;SDS011;6208;48.956;9.076;2023-04-21T20:04:04;5.75;;;5.15;;
12290;SDS011;6208;48.956;9.076;2023-04-21T20:06:48;5.35;;;4.88;;
12290;SDS011;6208;48.956;9.076;2023-04-21T20:09:33;4.85;;;4.28;;
12290;SDS011;6208;48.956;9.076;2023-04-21T20:12:17;4.90;;;4.35;;
12290;SDS011;6208;48.956;9.076;2023-04-21T20:15:01;5.57;;;5.07;;
12290;SDS011;6208;48.956;9.076;2023-04-21T20:17:46;5.82;;;5.20;;
12290;SDS011;6208;48.956;9.076;2023-04-21T20:20:32;6.80;;;6.20;;
12290;SDS011;6208;48.956;9.076;2023-04-21T20:23:17;8.15;;;6.78;;
12290;SDS011;6208;48.956;9.076;2023-04-21T20:26:01;6.90;;;6.20;;
12290;SDS011;6208;48.956;9.076;2023-04-21T20:28:46;7.20;;;6.60;;
12290;SDS011;6208;48.956;9.076;2023-04-21T20:31:30;7.80;;;6.80;;
12290;SDS011;6208;48.956;9.076;2023-04-21T20:34:15;8.20;;;6.53;;
12290;SDS011;6208;48.956;9.076;2023-04-21T20:36:59;8.15;;;6.55;;
12290;SDS011;6208;48.956;9.076;2023-04-21T20:39:44;6.75;;;6.13;;
12290;SDS011;6208;48.956;9.076;2023-04-21T20:42:29;7.65;;;6.25;;
12290;SDS011;6208;48.956;9.076;2023-04-21T20:45:14;7.63;;;6.18;;
12290;SDS011;6208;48.956;9.076;2023-04-21T20:48:00;7.20;;;6.50;;
12290;SDS011;6208;48.956;9.076;2023-04-21T20:50:44;7.07;;;5.55;;
12290;SDS011;6208;48.956;9.076;2023-04-21T20:53:29;8.10;;;7.30;;
12290;SDS011;6208;48.956;9.076;2023-04-21T20:56:13;7.25;;;6.55;;
12290;SDS011;6208;48.956;9.076;2023-04-21T20:59:00;7.40;;;5.70;;
12290;SDS011;6208;48.956;9.076;2023-04-21T21:04:15;6.95;;;6.25;;
12290;SDS011;6208;48.956;9.076;2023-04-21T21:07:03;10.25;;;6.40;;
12290;SDS011;6208;48.956;9.076;2023-04-21T21:09:48;7.57;;;6.60;;
12290;SDS011;6208;48.956;9.076;2023-04-21T21:12:33;11.55;;;8.77;;
12290;SDS011;6208;48.956;9.076;2023-04-21T21:15:17;10.88;;;8.18;;
12290;SDS011;6208;48.956;9.076;2023-04-21T21:18:02;12.77;;;9.10;;
12290;SDS011;6208;48.956;9.076;2023-04-21T21:20:46;14.55;;;9.30;;
12290;SDS011;6208;48.956;9.076;2023-04-21T21:23:30;16.60;;;9.18;;
12290;SDS011;6208;48.956;9.076;2023-04-21T21:26:15;14.23;;;8.00;;
12290;SDS011;6208;48.956;9.076;2023-04-21T21:29:00;9.20;;;6.15;;
12290;SDS011;6208;48.956;9.076;2023-04-21T21:31:44;6.28;;;5.68;;
12290;SDS011;6208;48.956;9.076;2023-04-21T21:34:28;4.53;;;4.18;;
12290;SDS011;6208;48.956;9.076;2023-04-21T21:37:13;5.03;;;4.65;;
12290;SDS011;6208;48.956;9.076;2023-04-21T21:39:57;4.32;;;4.03;;
12290;SDS011;6208;48.956;9.076;2023-04-21T21:42:43;4.43;;;4.03;;
12290;SDS011;6208;48.956;9.076;2023-04-21T21:45:27;4.63;;;4.32;;
12290;SDS011;6208;48.956;9.076;2023-04-21T21:48:11;5.32;;;4.28;;
12290;SDS011;6208;48.956;9.076;2023-04-21T21:50:55;4.50;;;4.15;;
12290;SDS011;6208;48.956;9.076;2023-04-21T21:53:39;4.82;;;4.30;;
12290;SDS011;6208;48.956;9.076;2023-04-21T21:56:23;4.13;;;3.83;;
12290;SDS011;6208;48.956;9.076;2023-04-21T21:59:08;3.85;;;3.63;;
12290;SDS011;6208;48.956;9.076;2023-04-21T22:01:52;4.55;;;4.25;;
12290;SDS011;6208;48.956;9.076;2023-04-21T22:04:37;4.60;;;4.20;;
12290;SDS011;6208;48.956;9.076;2023-04-21T22:07:21;4.20;;;3.90;;
12290;SDS011;6208;48.956;9.076;2023-04-21T22:10:08;4.55;;;4.25;;
12290;SDS011;6208;48.956;9.076;2023-04-21T22:12:53;4.78;;;4.47;;
12290;SDS011;6208;48.956;9.076;2023-04-21T22:15:37;4.80;;;4.40;;
12290;SDS011;6208;48.956;9.076;2023-04-21T22:18:21;4.80;;;4.40;;
12290;SDS011;6208;48.956;9.076;2023-04-21T22:21:06;4.55;;;4.20;;
12290;SDS011;6208;48.956;9.076;2023-04-21T22:23:50;5.05;;;4.60;;
12290;SDS011;6208;48.956;9.076;2023-04-21T22:26:35;5.10;;;4.60;;
12290;SDS011;6208;48.956;9.076;2023-04-21T22:29:20;7.82;;;5.00;;
12290;SDS011;6208;48.956;9.076;2023-04-21T22:32:04;5.65;;;5.00;;
12290;SDS011;6208;48.956;9.076;2023-04-21T22:34:48;5.30;;;4.90;;
12290;SDS011;6208;48.956;9.076;2023-04-21T22:37:33;4.43;;;4.13;;
12290;SDS011;6208;48.956;9.076;2023-04-21T22:40:20;5.00;;;4.53;;
12290;SDS011;6208;48.956;9.076;2023-04-21T22:43:04;4.85;;;4.53;;
12290;SDS011;6208;48.956;9.076;2023-04-21T22:45:49;6.60;;;5.32;;
12290;SDS011;6208;48.956;9.076;2023-04-21T22:48:33;7.07;;;5.00;;
12290;SDS011;6208;48.956;9.076;2023-04-21T22:51:19;5.32;;;5.00;;
12290;SDS011;6208;48.956;9.076;2023-04-21T22:54:04;5.05;;;4.65;;
12290;SDS011;6208;48.956;9.076;2023-04-21T22:56:48;5.00;;;4.50;;
12290;SDS011;6208;48.956;9.076;2023-04-21T22:59:32;5.30;;;4.85;;
12290;SDS011;6208;48.956;9.076;2023-04-21T23:02:17;4.63;;;4.28;;
12290;SDS011;6208;48.956;9.076;2023-04-21T23:05:01;5.32;;;4.82;;
12290;SDS011;6208;48.956;9.076;2023-04-21T23:07:49;5.22;;;4.93;;
12290;SDS011;6208;48.956;9.076;2023-04-21T23:10:33;5.30;;;4.90;;
12290;SDS011;6208;48.956;9.076;2023-04-21T23:13:17;5.10;;;4.68;;
12290;SDS011;6208;48.956;9.076;2023-04-21T23:16:01;5.68;;;5.18;;
12290;SDS011;6208;48.956;9.076;2023-04-21T23:18:46;5.05;;;4.63;;
12290;SDS011;6208;48.956;9.076;2023-04-21T23:21:29;5.32;;;4.82;;
12290;SDS011;6208;48.956;9.076;2023-04-21T23:24:14;4.97;;;4.57;;
12290;SDS011;6208;48.956;9.076;2023-04-21T23:26:58;5.32;;;4.82;;
12290;SDS011;6208;48.956;9.076;2023-04-21T23:29:44;5.07;;;4.57;;
12290;SDS011;6208;48.956;9.076;2023-04-21T23:32:28;6.40;;;5.20;;
12290;SDS011;6208;48.956;9.076;2023-04-21T23:35:12;5.88;;;5.20;;
12290;SDS011;6208;48.956;9.076;2023-04-21T23:37:57;6.43;;;5.13;;
12290;SDS011;6208;48.956;9.076;2023-04-21T23:40:41;6.28;;;5.68;;
12290;SDS011;6208;48.956;9.076;2023-04-21T23:43:25;6.32;;;5.82;;
12290;SDS011;6208;48.956;9.076;2023-04-21T23:46:09;6.30;;;5.72;;
12290;SDS011;6208;48.956;9.076;2023-04-21T23:48:53;5.90;;;5.30;;
12290;SDS011;6208;48.956;9.076;2023-04-21T23:51:37;6.10;;;5.60;;
12290;SDS011;6208;48.956;9.076;2023-04-21T23:54:22;6.97;;;5.78;;
12290;SDS011;6208;48.956;9.076;2023-04-21T23:57:07;6.00;;;5.50;;
12290;SDS011;6208;48.956;9.076;2023-04-21T23:59:51;5.55;;;5.15;;
